Time;durP1;ratioP1;P1;durP2;ratioP2;P2;SDS_P1;SDS_P2;PMS_P1;PMS_P2;Temp;Humidity;BMP_temperature;BMP_pressure;BME280_temperature;BME280_humidity;BME280_pressure;Samples;Min_cycle;Max_cycle;Signal;HPM_P1;HPM_P2
2023/04/15 00:04:12;;;;;;;;;;;;;;;15.03;36.78;94573.81;10524358;28;1440;-59
2023/04/15 00:09:13;;;;;;;;;;;;;;;15.04;36.78;94562.34;10527412;28;1917;-59
2023/04/15 00:14:14;;;;;;;;;;;;;;;15.03;36.72;94558.16;10515953;28;1328;-59
2023/04/15 00:19:14;;;;;;;;;;;;;;;15.04;36.69;94560.53;10510703;28;1452;-59
2023/04/15 00:24:15;;;;;;;;;;;;;;;15.02;36.68;94554.00;10521395;28;1460;-59
2023/04/15 00:29:15;;;;;;;;;;;;;;;15.02;36.70;94549.56;10528004;28;1917;-59
2023/04/15 00:34:26;;;;;;;;;;;;;;;15.03;36.73;94539.91;10524824;28;1440;-59
2023/04/15 00:39:27;;;;;;;;;;;;;;;15.02;36.70;94544.34;10540793;28;1225;-59
2023/04/15 00:44:27;;;;;;;;;;;;;;;15.02;36.73;94535.75;10535334;28;1460;-59
2023/04/15 00:49:28;;;;;;;;;;;;;;;15.02;36.74;94540.97;10540788;28;1892;-59
2023/04/15 00:54:29;;;;;;;;;;;;;;;15.01;36.67;94531.56;10529411;28;1425;-59
2023/04/15 00:59:30;;;;;;;;;;;;;;;15.03;36.78;94537.28;10522071;28;1072;-59
2023/04/15 01:04:32;;;;;;;;;;;;;;;15.02;36.76;94531.28;10480711;28;1575;-59
2023/04/15 01:09:33;;;;;;;;;;;;;;;14.99;36.69;94534.44;10540495;28;1897;-61
2023/04/15 01:14:33;;;;;;;;;;;;;;;15.03;36.71;94534.69;10525058;28;1454;-59
2023/04/15 01:19:35;;;;;;;;;;;;;;;15.01;36.68;94542.00;10537846;28;1107;-59
2023/04/15 01:24:36;;;;;;;;;;;;;;;15.01;36.64;94537.56;10533170;28;1488;-59
2023/04/15 01:29:37;;;;;;;;;;;;;;;15.02;36.61;94538.34;10527817;28;1910;-59
2023/04/15 01:34:39;;;;;;;;;;;;;;;15.01;36.84;94532.34;10518017;28;1527;-59
2023/04/15 01:39:40;;;;;;;;;;;;;;;15.01;36.63;94536.78;10537988;28;1413;-59
2023/04/15 01:44:40;;;;;;;;;;;;;;;15.01;36.61;94542.00;10527328;28;1009;-59
2023/04/15 01:49:41;;;;;;;;;;;;;;;15.01;36.61;94542.00;10527274;28;1910;-59
2023/04/15 01:54:41;;;;;;;;;;;;;;;15.01;36.78;94542.00;10525761;28;1107;-59
2023/04/15 01:59:41;;;;;;;;;;;;;;;15.01;36.63;94544.59;10530475;28;1441;-59
2023/04/15 02:04:42;;;;;;;;;;;;;;;14.99;36.72;94537.06;10522404;28;1654;-59
2023/04/15 02:09:42;;;;;;;;;;;;;;;14.99;36.72;94531.84;10537660;28;1902;-59
2023/04/15 02:14:42;;;;;;;;;;;;;;;15.00;36.71;94530.00;10527321;28;1527;-59
2023/04/15 02:19:43;;;;;;;;;;;;;;;14.99;36.59;94534.44;10520187;28;1503;-59
2023/04/15 02:24:45;;;;;;;;;;;;;;;14.99;36.64;94534.44;10510925;28;1163;-59
2023/04/15 02:29:46;;;;;;;;;;;;;;;14.99;36.74;94533.66;10488054;28;1963;-59
2023/04/15 02:34:47;;;;;;;;;;;;;;;14.98;36.50;94529.50;10520627;28;1432;-59
2023/04/15 02:39:47;;;;;;;;;;;;;;;14.97;36.59;94530.53;10536957;28;1126;-59
2023/04/15 02:44:47;;;;;;;;;;;;;;;14.97;36.85;94530.53;10531728;28;1682;-59
2023/04/15 02:49:48;;;;;;;;;;;;;;;14.98;36.74;94532.13;10513657;28;1951;-59
2023/04/15 02:54:48;;;;;;;;;;;;;;;14.98;36.61;94529.50;10534062;28;1115;-59
2023/04/15 02:59:48;;;;;;;;;;;;;;;14.98;36.62;94527.66;10523304;28;1433;-59
2023/04/15 03:04:49;;;;;;;;;;;;;;;14.99;36.72;94528.44;10518491;28;1412;-59
2023/04/15 03:09:49;;;;;;;;;;;;;;;14.98;36.70;94534.72;10527995;28;1968;-59
2023/04/15 03:14:50;;;;;;;;;;;;;;;14.96;36.77;94540.19;10519880;28;1575;-59
2023/04/15 03:19:51;;;;;;;;;;;;;;;14.97;36.68;94544.38;10535049;28;1209;-60
2023/04/15 03:24:51;;;;;;;;;;;;;;;14.96;36.72;94544.63;10515525;28;1674;-59
2023/04/15 03:29:52;;;;;;;;;;;;;;;14.95;36.60;94551.69;10521068;28;1901;-59
2023/04/15 03:34:52;;;;;;;;;;;;;;;14.96;36.60;94542.03;10518054;28;1541;-59
2023/04/15 03:39:53;;;;;;;;;;;;;;;14.96;36.59;94552.47;10513559;28;1425;-59
2023/04/15 03:44:54;;;;;;;;;;;;;;;14.96;36.61;94547.25;10534175;28;1151;-59
2023/04/15 03:49:54;;;;;;;;;;;;;;;14.93;36.71;94558.22;10522900;28;1905;-59
2023/04/15 03:54:55;;;;;;;;;;;;;;;14.95;36.60;94554.28;10533477;28;1186;-59
2023/04/15 03:59:55;;;;;;;;;;;;;;;14.93;36.65;94558.22;10520353;28;1428;-59
2023/04/15 04:04:55;;;;;;;;;;;;;;;14.96;36.67;94560.28;10522270;28;1456;-58
2023/04/15 04:09:56;;;;;;;;;;;;;;;14.95;36.44;94559.50;10541952;28;1967;-59
2023/04/15 04:14:57;;;;;;;;;;;;;;;14.94;36.63;94554.56;10537916;28;1583;-59
2023/04/15 04:19:57;;;;;;;;;;;;;;;14.94;36.72;94557.19;10540663;28;1445;-59
2023/04/15 04:24:58;;;;;;;;;;;;;;;14.94;36.69;94551.97;10527085;28;1084;-59
2023/04/15 04:29:59;;;;;;;;;;;;;;;14.93;36.54;94555.59;10525787;28;1973;-59
2023/04/15 04:34:59;;;;;;;;;;;;;;;14.94;36.54;94557.94;10521096;28;1642;-59
2023/04/15 04:40:00;;;;;;;;;;;;;;;14.93;36.78;94559.00;10541291;28;1099;-59
2023/04/15 04:45:02;;;;;;;;;;;;;;;14.94;36.57;94551.97;10536028;28;1611;-59
2023/04/15 04:50:03;;;;;;;;;;;;;;;14.94;36.78;94567.63;10527105;28;1906;-59
2023/04/15 04:55:04;;;;;;;;;;;;;;;14.93;36.63;94564.22;10523584;28;1106;-59
2023/04/15 05:00:05;;;;;;;;;;;;;;;14.93;36.58;94566.03;10510908;28;1472;-59
2023/04/15 05:05:15;;;;;;;;;;;;;;;14.92;36.70;94564.50;10528111;28;1468;-59
2023/04/15 05:10:17;;;;;;;;;;;;;;;14.93;36.76;94560.81;10518496;28;1901;-59
2023/04/15 05:15:18;;;;;;;;;;;;;;;14.92;36.69;94556.66;10535360;28;1127;-60
2023/04/15 05:20:28;;;;;;;;;;;;;;;14.91;36.69;94552.47;10524800;28;1428;-59
2023/04/15 05:25:28;;;;;;;;;;;;;;;14.92;36.64;94556.66;10533227;28;1162;-59
2023/04/15 05:30:28;;;;;;;;;;;;;;;14.92;36.56;94561.88;10536483;28;1918;-59
2023/04/15 05:35:38;;;;;;;;;;;;;;;14.92;36.87;94559.28;10525413;28;1385;-60
2023/04/15 05:40:38;;;;;;;;;;;;;;;14.91;36.59;94563.69;10538626;28;1492;-59
2023/04/15 05:45:40;;;;;;;;;;;;;;;14.91;36.64;94560.31;10531274;28;1539;-59
2023/04/15 05:50:41;;;;;;;;;;;;;;;14.90;36.62;94559.50;10525861;28;1905;-59
2023/04/15 05:55:42;;;;;;;;;;;;;;;14.90;36.60;94550.94;10535062;28;1151;-59
2023/04/15 06:00:43;;;;;;;;;;;;;;;14.89;36.64;94560.56;10524764;28;1420;-62
2023/04/15 06:05:44;;;;;;;;;;;;;;;14.90;36.65;94561.38;10519964;28;1634;-59
2023/04/15 06:10:45;;;;;;;;;;;;;;;14.90;36.58;94566.59;10548306;28;1910;-59
2023/04/15 06:15:46;;;;;;;;;;;;;;;14.89;36.79;94572.84;10519480;28;1630;-59
2023/04/15 06:20:47;;;;;;;;;;;;;;;14.89;36.74;94565.78;10542529;28;1166;-60
2023/04/15 06:25:48;;;;;;;;;;;;;;;14.89;36.74;94570.22;10527551;28;1658;-60
2023/04/15 06:30:49;;;;;;;;;;;;;;;14.88;36.64;94572.03;10534184;28;1960;-60
2023/04/15 06:35:50;;;;;;;;;;;;;;;14.88;36.74;94566.06;10512586;28;1479;-59
2023/04/15 06:40:50;;;;;;;;;;;;;;;14.88;36.63;94573.91;10531332;28;1440;-59
2023/04/15 06:45:51;;;;;;;;;;;;;;;14.88;36.81;94574.66;10517302;28;1414;-59
2023/04/15 06:50:53;;;;;;;;;;;;;;;14.89;36.57;94575.44;10528067;28;1977;-59
2023/04/15 06:55:54;;;;;;;;;;;;;;;14.89;36.70;94580.66;10526828;28;1374;-59
2023/04/15 07:00:55;;;;;;;;;;;;;;;14.88;36.78;94581.72;10535108;28;1028;-58
2023/04/15 07:05:55;;;;;;;;;;;;;;;14.87;36.63;94583.53;10518489;28;1488;-59
2023/04/15 07:10:56;;;;;;;;;;;;;;;14.88;36.78;94585.09;10531308;28;1975;-59
2023/04/15 07:15:56;;;;;;;;;;;;;;;14.87;36.64;94586.16;10517219;28;1028;-59
2023/04/15 07:20:56;;;;;;;;;;;;;;;14.89;36.73;94588.50;10523716;28;1516;-60
2023/04/15 07:25:56;;;;;;;;;;;;;;;14.88;36.75;94592.16;10527896;28;1099;-59
2023/04/15 07:31:07;;;;;;;;;;;;;;;14.88;36.71;94587.69;10493863;28;1985;-59
2023/04/15 07:36:07;;;;;;;;;;;;;;;14.88;36.78;94594.78;10517682;28;1452;-59
2023/04/15 07:41:08;;;;;;;;;;;;;;;14.89;36.86;94593.69;10529814;28;1464;-59
2023/04/15 07:46:08;;;;;;;;;;;;;;;14.89;36.73;94593.69;10533856;28;1082;-59
2023/04/15 07:51:09;;;;;;;;;;;;;;;14.88;36.81;94590.31;10524509;28;1902;-60
2023/04/15 07:56:10;;;;;;;;;;;;;;;14.90;36.82;94588.22;10529520;28;1496;-60
2023/04/15 08:01:12;;;;;;;;;;;;;;;14.87;36.77;94583.53;10533936;28;1122;-58
2023/04/15 08:06:13;;;;;;;;;;;;;;;14.88;36.99;94584.34;10517659;28;1487;-58
2023/04/15 08:11:13;;;;;;;;;;;;;;;14.89;36.87;94585.88;10533120;28;1906;-58
2023/04/15 08:16:20;;;;;;;;;;;;;;;14.89;37.02;94578.06;10530659;28;1650;-60
2023/04/15 08:21:20;;;;;;;;;;;;;;;14.89;37.15;94578.06;10516103;28;1610;-60
2023/04/15 08:26:21;;;;;;;;;;;;;;;14.91;37.00;94581.19;10526435;28;1146;-60
2023/04/15 08:31:22;;;;;;;;;;;;;;;14.90;37.17;94577.03;10526068;28;1971;-61
2023/04/15 08:36:23;;;;;;;;;;;;;;;14.89;37.06;94572.84;10521488;28;1416;-60
2023/04/15 08:41:24;;;;;;;;;;;;;;;14.89;37.26;94575.44;10534072;28;1162;-61
2023/04/15 08:46:24;;;;;;;;;;;;;;;14.91;37.03;94578.56;10500906;28;1681;-58
2023/04/15 08:51:25;;;;;;;;;;;;;;;14.91;36.96;94578.56;10514236;28;1913;-58
2023/04/15 08:56:27;;;;;;;;;;;;;;;14.90;37.21;94582.25;10522445;28;1088;-60
2023/04/15 09:01:27;;;;;;;;;;;;;;;14.90;37.14;94588.22;10506004;28;1646;-60
2023/04/15 09:06:27;;;;;;;;;;;;;;;14.90;37.10;94592.66;10523534;28;1472;-60
2023/04/15 09:11:29;;;;;;;;;;;;;;;14.91;36.97;94597.63;10528758;28;1906;-60
2023/04/15 09:16:30;;;;;;;;;;;;;;;14.91;37.06;94604.66;10539995;28;989;-59
2023/04/15 09:21:31;;;;;;;;;;;;;;;14.90;37.16;94603.88;10506615;28;1425;-60
2023/04/15 09:26:35;;;;;;;;;;;;;;;14.90;37.03;94609.09;10496990;28;1501;-59
2023/04/15 09:31:36;;;;;;;;;;;;;;;14.89;37.21;94614.56;10534983;28;1979;-59
2023/04/15 09:36:45;;;;;;;;;;;;;;;14.89;37.14;94611.97;10521941;28;1585;-60
2023/04/15 09:41:46;;;;;;;;;;;;;;;14.90;37.09;94616.16;10520256;28;1432;-59
2023/04/15 09:46:48;;;;;;;;;;;;;;;14.90;37.02;94608.31;10538421;28;1139;-59
2023/04/15 09:51:49;;;;;;;;;;;;;;;14.91;37.13;94620.31;10532343;28;1917;-60
2023/04/15 09:56:49;;;;;;;;;;;;;;;14.91;37.25;94620.31;10530873;28;1460;-59
2023/04/15 10:01:49;;;;;;;;;;;;;;;14.89;37.29;94628.41;10516019;28;1393;-60
2023/04/15 10:06:50;;;;;;;;;;;;;;;14.90;37.10;94629.19;10523802;28;1147;-60
2023/04/15 10:11:51;;;;;;;;;;;;;;;14.88;37.02;94620.84;10502902;28;1972;-60
2023/04/15 10:16:51;;;;;;;;;;;;;;;14.90;37.16;94618.75;10539014;28;1177;-60
2023/04/15 10:21:52;;;;;;;;;;;;;;;14.89;37.20;94617.19;10520899;28;1520;-60
2023/04/15 10:26:52;;;;;;;;;;;;;;;14.89;37.21;94625.00;10498503;28;1175;-60
2023/04/15 10:31:54;;;;;;;;;;;;;;;14.89;37.17;94628.41;10537024;28;1907;-60
2023/04/15 10:36:56;;;;;;;;;;;;;;;14.89;37.10;94633.63;10536336;28;1111;-60
2023/04/15 10:42:07;;;;;;;;;;;;;;;14.90;37.09;94640.41;10533216;28;1452;-60
2023/04/15 10:47:11;;;;;;;;;;;;;;;14.89;37.17;94630.22;10536948;28;957;-60
2023/04/15 10:52:12;;;;;;;;;;;;;;;14.89;37.13;94643.28;10505259;28;1973;-59
2023/04/15 10:57:20;;;;;;;;;;;;;;;14.90;37.06;94647.47;10501124;28;1388;-59
2023/04/15 11:02:21;;;;;;;;;;;;;;;14.90;37.03;94645.63;10484860;28;1549;-59
2023/04/15 11:07:48;;;;;;;;;;;;;;;14.89;37.14;94645.88;10530320;28;1179;-59
2023/04/15 11:12:52;;;;;;;;;;;;;;;14.90;36.96;94642.25;10520939;28;1962;-60
2023/04/15 11:17:52;;;;;;;;;;;;;;;14.90;37.02;94644.84;10535580;28;1099;-60
2023/04/15 11:22:53;;;;;;;;;;;;;;;14.89;36.92;94640.66;10524298;28;1432;-60
2023/04/15 11:27:54;;;;;;;;;;;;;;;14.89;37.07;94648.50;10522948;28;1492;-59
2023/04/15 11:32:59;;;;;;;;;;;;;;;14.89;37.12;94658.94;10502092;28;1886;-60
2023/04/15 11:38:10;;;;;;;;;;;;;;;14.90;37.09;94650.06;10535312;28;1114;-60
2023/04/15 11:43:14;;;;;;;;;;;;;;;14.90;36.88;94663.13;10520928;28;1464;-57
2023/04/15 11:48:26;;;;;;;;;;;;;;;14.89;37.02;94659.72;10534650;28;1977;-58
2023/04/15 11:53:45;;;;;;;;;;;;;;;14.87;36.96;94653.97;10512538;28;1662;-59
2023/04/15 11:58:46;;;;;;;;;;;;;;;14.88;37.06;94663.34;10517849;28;1143;-58
2023/04/15 12:03:47;;;;;;;;;;;;;;;14.88;37.04;94662.59;10516596;28;1507;-60
2023/04/15 12:08:51;;;;;;;;;;;;;;;14.89;36.92;94666.75;10516722;28;1913;-59
2023/04/15 12:14:01;;;;;;;;;;;;;;;14.87;37.04;94674.06;10529228;28;1551;-60
2023/04/15 12:19:07;;;;;;;;;;;;;;;14.88;37.04;94680.88;10530263;28;1436;-59
2023/04/15 12:24:08;;;;;;;;;;;;;;;14.87;36.98;94687.91;10516909;28;1131;-60
2023/04/15 12:29:09;;;;;;;;;;;;;;;14.87;37.03;94687.09;10537890;28;1905;-59
2023/04/15 12:34:29;;;;;;;;;;;;;;;14.87;36.88;94687.91;10531504;28;1436;-60
2023/04/15 12:39:31;;;;;;;;;;;;;;;14.88;36.89;94686.84;10523198;28;1067;-60
2023/04/15 12:44:32;;;;;;;;;;;;;;;14.89;36.84;94703.28;10537056;28;1519;-60
2023/04/15 12:49:42;;;;;;;;;;;;;;;14.88;36.82;94712.16;10534491;28;1909;-60
2023/04/15 12:54:43;;;;;;;;;;;;;;;14.89;36.89;94716.34;10526596;28;1456;-58
2023/04/15 12:59:43;;;;;;;;;;;;;;;14.87;36.87;94718.41;10539423;28;1106;-60
2023/04/15 13:04:44;;;;;;;;;;;;;;;14.88;36.89;94725.22;10523153;28;1428;-60
2023/04/15 13:09:46;;;;;;;;;;;;;;;14.88;36.94;94730.44;10521839;28;1905;-59
2023/04/15 13:14:47;;;;;;;;;;;;;;;14.87;36.84;94734.06;10521255;28;1424;-59
2023/04/15 13:19:47;;;;;;;;;;;;;;;14.89;36.86;94742.41;10538115;28;1087;-59
2023/04/15 13:24:50;;;;;;;;;;;;;;;14.85;36.97;94741.38;10519301;28;1513;-59
2023/04/15 13:29:51;;;;;;;;;;;;;;;14.87;36.80;94750.53;10529022;28;1886;-59
2023/04/15 13:34:52;;;;;;;;;;;;;;;14.88;36.78;94753.91;10521283;28;1417;-60
2023/04/15 13:39:53;;;;;;;;;;;;;;;14.86;36.95;94748.94;10532967;28;1468;-59
2023/04/15 13:44:57;;;;;;;;;;;;;;;14.87;37.09;94760.16;10519476;28;1166;-59
2023/04/15 13:49:58;;;;;;;;;;;;;;;14.86;36.92;94775.03;10508980;28;1906;-59
2023/04/15 13:54:59;;;;;;;;;;;;;;;14.88;36.81;94769.56;10516625;28;1151;-59
2023/04/15 13:59:59;;;;;;;;;;;;;;;14.88;36.91;94782.63;10506636;28;1495;-59
2023/04/15 14:05:00;;;;;;;;;;;;;;;14.85;36.73;94778.69;10520862;28;1389;-59
2023/04/15 14:10:00;;;;;;;;;;;;;;;14.87;36.90;94783.66;10532899;28;1971;-60
2023/04/15 14:15:01;;;;;;;;;;;;;;;14.87;36.74;94792.25;10537231;28;1162;-60
2023/04/15 14:20:01;;;;;;;;;;;;;;;14.87;36.98;94796.69;10501024;28;1524;-59
2023/04/15 14:25:03;;;;;;;;;;;;;;;14.86;36.92;94808.19;10511058;28;1178;-60
2023/04/15 14:30:06;;;;;;;;;;;;;;;14.87;36.88;94818.34;10524852;28;1961;-59
2023/04/15 14:35:07;;;;;;;;;;;;;;;14.83;36.86;94821.75;10523538;28;1432;-59
2023/04/15 14:40:07;;;;;;;;;;;;;;;14.84;37.01;94829.28;10515848;28;1432;-59
2023/04/15 14:45:17;;;;;;;;;;;;;;;14.86;36.87;94826.44;10539764;28;1174;-59
2023/04/15 14:50:19;;;;;;;;;;;;;;;14.83;36.99;94840.78;10526574;28;1887;-59
2023/04/15 14:55:19;;;;;;;;;;;;;;;14.85;36.88;94848.34;10519107;28;1849;-59
2023/04/15 15:00:29;;;;;;;;;;;;;;;14.83;36.76;94853.03;10530874;28;1437;-58
2023/04/15 15:05:30;;;;;;;;;;;;;;;14.83;36.99;94874.72;10519967;28;1338;-58
2023/04/15 15:10:31;;;;;;;;;;;;;;;14.82;36.93;94893.22;10535028;28;1972;-58
2023/04/15 15:15:33;;;;;;;;;;;;;;;14.81;37.00;94892.44;10525354;28;1461;-60
2023/04/15 15:20:34;;;;;;;;;;;;;;;14.82;37.01;94908.88;10520036;28;1397;-60
2023/04/15 15:25:35;;;;;;;;;;;;;;;14.79;37.02;94919.81;10506597;28;1326;-60
2023/04/15 15:30:40;;;;;;;;;;;;;;;14.80;37.03;94927.38;10523667;28;1978;-60
2023/04/15 15:35:40;;;;;;;;;;;;;;;14.81;37.10;94922.97;10517893;28;1419;-60
2023/04/15 15:40:41;;;;;;;;;;;;;;;14.82;37.01;94929.75;10527522;28;1448;-60
2023/04/15 15:45:41;;;;;;;;;;;;;;;14.82;37.00;94930.53;10534467;28;1188;-60
2023/04/15 15:50:43;;;;;;;;;;;;;;;14.82;37.04;94937.59;10517573;28;1915;-60
2023/04/15 15:55:44;;;;;;;;;;;;;;;14.81;36.90;94938.63;10525114;28;1123;-60
2023/04/15 16:00:51;;;;;;;;;;;;;;;14.83;37.01;94950.38;10535440;28;1424;-60
2023/04/15 16:05:52;;;;;;;;;;;;;;;14.83;37.02;94955.59;10508075;28;1415;-60
2023/04/15 16:10:52;;;;;;;;;;;;;;;14.83;36.99;94954.78;10541622;28;1918;-60
2023/04/15 16:15:53;;;;;;;;;;;;;;;14.82;36.89;94954.00;10521098;28;1638;-60
2023/04/15 16:20:54;;;;;;;;;;;;;;;14.82;36.86;94955.84;10527418;28;1472;-60
2023/04/15 16:25:54;;;;;;;;;;;;;;;14.82;37.02;94966.28;10515008;28;1424;-60
2023/04/15 16:30:55;;;;;;;;;;;;;;;14.83;36.92;94979.06;10532292;28;1914;-60
2023/04/15 16:35:56;;;;;;;;;;;;;;;14.83;36.80;94988.72;10523848;28;1444;-59
2023/04/15 16:40:57;;;;;;;;;;;;;;;14.81;37.00;94988.19;10524861;28;1444;-60
2023/04/15 16:45:58;;;;;;;;;;;;;;;14.84;36.86;94998.13;10540054;28;1059;-59
2023/04/15 16:50:59;;;;;;;;;;;;;;;14.81;36.86;95002.03;10527876;28;1910;-60
2023/04/15 16:56:01;;;;;;;;;;;;;;;14.83;36.99;95004.38;10521371;28;1131;-60
2023/04/15 17:01:02;;;;;;;;;;;;;;;14.80;37.04;95016.09;10522105;28;1504;-60
2023/04/15 17:06:04;;;;;;;;;;;;;;;14.80;36.94;95021.31;10522764;28;1448;-60
2023/04/15 17:11:04;;;;;;;;;;;;;;;14.83;36.80;95022.63;10534235;28;1897;-60
2023/04/15 17:16:05;;;;;;;;;;;;;;;14.84;36.79;95034.66;10538304;28;1193;-60
2023/04/15 17:21:05;;;;;;;;;;;;;;;14.84;36.70;95039.88;10528207;28;1404;-59
2023/04/15 17:26:05;;;;;;;;;;;;;;;14.83;36.82;95040.91;10513162;28;1115;-60
2023/04/15 17:31:06;;;;;;;;;;;;;;;14.84;36.79;95045.09;10535102;28;1909;-59
2023/04/15 17:36:06;;;;;;;;;;;;;;;14.81;36.98;95053.41;10522003;28;1531;-60
2023/04/15 17:41:07;;;;;;;;;;;;;;;14.82;36.91;95063.59;10538728;28;1126;-59
2023/04/15 17:46:09;;;;;;;;;;;;;;;14.84;36.76;95073.78;10530540;28;1555;-59
2023/04/15 17:51:11;;;;;;;;;;;;;;;14.82;36.75;95079.22;10497129;28;1910;-59
2023/04/15 17:56:12;;;;;;;;;;;;;;;14.82;36.83;95078.47;10537132;28;1127;-59
2023/04/15 18:01:12;;;;;;;;;;;;;;;14.81;36.96;95084.72;10521155;28;1468;-59
2023/04/15 18:06:13;;;;;;;;;;;;;;;14.83;36.80;95095.69;10520610;28;1377;-60
2023/04/15 18:11:13;;;;;;;;;;;;;;;14.81;36.82;95105.59;10511059;28;1910;-59
2023/04/15 18:16:14;;;;;;;;;;;;;;;14.83;36.84;95119.16;10537182;28;1154;-60
2023/04/15 18:21:15;;;;;;;;;;;;;;;14.81;36.85;95116.81;10515642;28;1443;-59
2023/04/15 18:26:17;;;;;;;;;;;;;;;14.80;36.83;95123.06;10529811;28;1146;-60
2023/04/15 18:31:17;;;;;;;;;;;;;;;14.81;36.90;95126.47;10532265;28;1974;-60
2023/04/15 18:36:18;;;;;;;;;;;;;;;14.81;36.87;95136.91;10501167;28;1432;-59
2023/04/15 18:41:18;;;;;;;;;;;;;;;14.80;36.82;95143.94;10516956;28;1111;-59
2023/04/15 18:46:19;;;;;;;;;;;;;;;14.79;37.02;95146.81;10521732;28;1468;-59
2023/04/15 18:51:19;;;;;;;;;;;;;;;14.78;36.78;95159.03;10517750;28;1914;-59
2023/04/15 18:56:20;;;;;;;;;;;;;;;14.80;36.88;95170.03;10527837;28;1577;-59
2023/04/15 19:01:21;;;;;;;;;;;;;;;14.80;36.83;95171.84;10514000;28;1440;-59
2023/04/15 19:06:22;;;;;;;;;;;;;;;14.79;36.92;95176.28;10516080;28;1629;-59
2023/04/15 19:11:24;;;;;;;;;;;;;;;14.80;36.80;95177.84;10541698;28;1898;-59
2023/04/15 19:16:24;;;;;;;;;;;;;;;14.78;36.80;95189.56;10531057;28;1444;-59
2023/04/15 19:21:35;;;;;;;;;;;;;;;14.78;36.96;95192.97;10522577;28;1441;-59
2023/04/15 19:26:35;;;;;;;;;;;;;;;14.77;36.86;95198.44;10527054;28;1453;-59
2023/04/15 19:31:35;;;;;;;;;;;;;;;14.80;36.84;95211.75;10517202;28;1902;-59
2023/04/15 19:36:36;;;;;;;;;;;;;;;14.78;36.93;95206.00;10517166;28;1444;-59
2023/04/15 19:41:38;;;;;;;;;;;;;;;14.78;36.99;95216.44;10527949;28;1460;-59
2023/04/15 19:46:43;;;;;;;;;;;;;;;14.78;36.81;95226.09;10526351;28;1039;-59
2023/04/15 19:51:46;;;;;;;;;;;;;;;14.78;36.92;95226.09;10506438;28;1933;-59
2023/04/15 19:56:47;;;;;;;;;;;;;;;14.77;36.88;95229.75;10535145;28;1154;-59
2023/04/15 20:01:48;;;;;;;;;;;;;;;14.78;36.95;95226.88;10522359;28;1654;-59
2023/04/15 20:06:54;;;;;;;;;;;;;;;14.77;36.97;95234.97;10521120;28;1123;-59
2023/04/15 20:11:55;;;;;;;;;;;;;;;14.77;37.02;95237.56;10518190;28;1901;-59
2023/04/15 20:16:56;;;;;;;;;;;;;;;14.76;36.97;95233.38;10533782;28;1103;-59
2023/04/15 20:22:06;;;;;;;;;;;;;;;14.77;36.95;95245.41;10512688;28;1626;-59
2023/04/15 20:27:06;;;;;;;;;;;;;;;14.77;36.73;95246.19;10521512;28;1437;-59
2023/04/15 20:32:10;;;;;;;;;;;;;;;14.76;36.86;95247.22;10509137;28;1914;-60
2023/04/15 20:37:11;;;;;;;;;;;;;;;14.77;36.79;95253.22;10525254;28;1165;-59
2023/04/15 20:42:11;;;;;;;;;;;;;;;14.76;37.05;95256.84;10517562;28;1409;-59
2023/04/15 20:47:11;;;;;;;;;;;;;;;14.76;36.95;95256.84;10537176;28;1158;-59
2023/04/15 20:52:12;;;;;;;;;;;;;;;14.75;36.96;95260.53;10534892;28;1983;-59
2023/04/15 20:57:13;;;;;;;;;;;;;;;14.76;36.96;95264.69;10540184;28;1588;-59
2023/04/15 21:02:14;;;;;;;;;;;;;;;14.75;36.96;95270.94;10528697;28;1697;-59
2023/04/15 21:07:14;;;;;;;;;;;;;;;14.75;37.03;95273.56;10536440;28;1107;-59
2023/04/15 21:12:15;;;;;;;;;;;;;;;14.74;36.94;95277.19;10525979;28;1964;-59
2023/04/15 21:17:15;;;;;;;;;;;;;;;14.75;36.96;95278.78;10539918;28;1064;-59
2023/04/15 21:22:15;;;;;;;;;;;;;;;14.76;36.91;95288.97;10514782;28;1471;-60
2023/04/15 21:27:16;;;;;;;;;;;;;;;14.74;36.97;95292.84;10525273;28;1479;-59
2023/04/15 21:32:17;;;;;;;;;;;;;;;14.73;37.00;95302.50;10523722;28;1973;-59
2023/04/15 21:37:19;;;;;;;;;;;;;;;14.76;36.83;95309.03;10533117;28;1257;-59
2023/04/15 21:42:20;;;;;;;;;;;;;;;14.74;37.03;95313.72;10522999;28;1425;-59
2023/04/15 21:47:21;;;;;;;;;;;;;;;14.74;37.00;95313.72;10489558;28;1841;-60
2023/04/15 21:52:22;;;;;;;;;;;;;;;14.75;37.09;95316.09;10519265;28;1981;-59
2023/04/15 21:57:22;;;;;;;;;;;;;;;14.75;36.98;95325.75;10502285;28;1795;-60
2023/04/15 22:02:23;;;;;;;;;;;;;;;14.74;37.12;95324.16;10483489;28;1993;-60
2023/04/15 22:07:23;;;;;;;;;;;;;;;14.76;37.57;95337.75;10498153;28;1816;-59
2023/04/15 22:12:23;;;;;;;;;;;;;;;14.81;38.06;95343.00;10500551;28;1890;-60
2023/04/15 22:17:26;;;;;;;;;;;;;;;14.89;38.47;95350.41;10474943;28;1781;-58
2023/04/15 22:22:26;;;;;;;;;;;;;;;15.01;38.36;95358.84;10481644;28;1792;-59
2023/04/15 22:27:26;;;;;;;;;;;;;;;15.14;38.70;95358.47;10480134;28;1815;-59
2023/04/15 22:32:27;;;;;;;;;;;;;;;15.25;38.69;95358.28;10471123;28;2024;-59
2023/04/15 22:37:31;;;;;;;;;;;;;;;15.39;38.49;95358.66;10478206;28;1794;-60
2023/04/15 22:42:32;;;;;;;;;;;;;;;15.51;38.58;95366.34;10478704;28;1773;-60
2023/04/15 22:47:32;;;;;;;;;;;;;;;15.60;38.51;95370.84;10491693;28;1786;-60
2023/04/15 22:52:32;;;;;;;;;;;;;;;15.71;38.35;95369.91;10473805;28;1973;-60
2023/04/15 22:57:33;;;;;;;;;;;;;;;15.80;38.13;95378.84;10488922;28;1798;-60
2023/04/15 23:02:33;;;;;;;;;;;;;;;15.89;38.34;95379.94;10472101;28;2089;-60
2023/04/15 23:07:33;;;;;;;;;;;;;;;15.98;38.15;95382.88;10450649;28;2028;-60
2023/04/15 23:12:44;;;;;;;;;;;;;;;16.03;38.16;95375.81;10467488;28;2066;-60
2023/04/15 23:17:54;;;;;;;;;;;;;;;16.10;38.22;95391.28;10469327;28;2164;-60
2023/04/15 23:22:54;;;;;;;;;;;;;;;16.19;38.07;95392.41;10468355;28;2121;-60
2023/04/15 23:28:00;;;;;;;;;;;;;;;16.22;38.10;95397.91;10466940;28;2023;-60
2023/04/15 23:33:01;;;;;;;;;;;;;;;16.27;38.13;95397.13;10463672;28;2229;-60
2023/04/15 23:38:04;;;;;;;;;;;;;;;16.34;38.15;95400.31;10474122;28;1965;-60
2023/04/15 23:43:05;;;;;;;;;;;;;;;16.40;38.10;95401.13;10465081;28;2010;-60
2023/04/15 23:48:06;;;;;;;;;;;;;;;16.41;38.07;95403.47;10461291;28;2014;-60
2023/04/15 23:53:07;;;;;;;;;;;;;;;16.43;38.10;95411.84;10468455;28;2130;-59
2023/04/15 23:58:07;;;;;;;;;;;;;;;16.48;37.96;95403.25;10466932;28;2122;-60
